createdAt,value
2019-01-11T00:00:12.916Z,14.13
2019-01-11T00:02:39.528Z,12.57
2019-01-11T00:05:06.178Z,13.40
2019-01-11T00:07:32.716Z,11.83
2019-01-11T00:09:59.264Z,11.33
2019-01-11T00:12:25.790Z,11.90
2019-01-11T00:14:52.421Z,13.47
2019-01-11T00:17:18.955Z,11.93
2019-01-11T00:19:45.508Z,10.70
2019-01-11T00:22:12.070Z,10.47
2019-01-11T00:24:38.584Z,11.40
2019-01-11T00:27:05.142Z,11.30
2019-01-11T00:29:31.946Z,12.73
2019-01-11T00:31:58.602Z,13.10
2019-01-11T00:34:25.129Z,12.30
2019-01-11T00:36:51.680Z,13.53
2019-01-11T00:39:18.205Z,13.73
2019-01-11T00:41:44.856Z,15.20
2019-01-11T00:44:11.383Z,12.80
2019-01-11T00:46:37.944Z,17.43
2019-01-11T00:49:04.503Z,13.90
2019-01-11T00:51:31.130Z,17.50
2019-01-11T00:53:57.673Z,14.00
2019-01-11T00:56:24.191Z,13.97
2019-01-11T00:58:50.757Z,15.60
2019-01-11T01:01:17.374Z,15.50
2019-01-11T01:03:43.828Z,16.77
2019-01-11T01:06:10.453Z,16.70
2019-01-11T01:08:37.124Z,16.97
2019-01-11T01:11:04.152Z,18.07
2019-01-11T01:13:30.896Z,16.70
2019-01-11T01:15:57.615Z,16.57
2019-01-11T01:18:24.278Z,16.10
2019-01-11T01:20:51.113Z,15.50
2019-01-11T01:23:17.763Z,13.60
2019-01-11T01:25:44.889Z,14.43
2019-01-11T01:28:11.538Z,14.67
2019-01-11T01:30:38.065Z,15.17
2019-01-11T01:33:04.633Z,13.60
2019-01-11T01:35:31.163Z,12.40
2019-01-11T01:37:58.155Z,12.87
2019-01-11T01:40:24.727Z,13.07
2019-01-11T01:42:51.296Z,11.83
2019-01-11T01:45:17.815Z,11.80
2019-01-11T01:47:44.478Z,11.07
2019-01-11T01:50:11.623Z,12.07
2019-01-11T01:52:38.364Z,11.53
2019-01-11T01:55:07.794Z,12.33
2019-01-11T01:57:34.542Z,12.33
2019-01-11T02:00:01.076Z,10.63
2019-01-11T02:02:27.745Z,10.67
2019-01-11T02:04:54.248Z,10.57
2019-01-11T02:07:20.776Z,12.57
2019-01-11T02:09:47.444Z,12.20
2019-01-11T02:12:13.956Z,11.17
2019-01-11T02:14:41.726Z,12.07
2019-01-11T02:17:09.578Z,11.57
2019-01-11T02:19:36.148Z,10.70
2019-01-11T02:22:02.963Z,11.77
2019-01-11T02:24:29.553Z,11.53
2019-01-11T02:26:56.073Z,11.93
2019-01-11T02:29:22.749Z,14.60
2019-01-11T02:31:49.283Z,13.40
2019-01-11T02:34:15.840Z,12.63
2019-01-11T02:36:42.365Z,13.90
2019-01-11T02:39:08.919Z,13.90
2019-01-11T02:41:35.437Z,11.87
2019-01-11T02:44:02.089Z,14.03
2019-01-11T02:46:28.721Z,13.50
2019-01-11T02:48:55.338Z,13.53
2019-01-11T02:51:21.825Z,16.27
2019-01-11T02:53:48.328Z,13.60
2019-01-11T02:56:14.892Z,15.47
2019-01-11T02:58:41.606Z,13.20
2019-01-11T03:01:09.335Z,14.53
2019-01-11T03:03:35.970Z,15.10
2019-01-11T03:06:03.031Z,15.30
2019-01-11T03:08:29.656Z,14.20
2019-01-11T03:10:56.205Z,15.97
2019-01-11T03:13:22.717Z,16.10
2019-01-11T03:15:49.277Z,15.63
2019-01-11T03:18:15.834Z,16.80
2019-01-11T03:20:42.396Z,17.10
2019-01-11T03:23:09.031Z,18.87
2019-01-11T03:25:35.584Z,17.20
2019-01-11T03:28:02.202Z,17.33
2019-01-11T03:30:28.866Z,19.20
2019-01-11T03:32:55.466Z,18.83
2019-01-11T03:35:22.256Z,17.20
2019-01-11T03:37:48.977Z,18.87
2019-01-11T03:40:18.835Z,19.57
2019-01-11T03:42:45.363Z,18.93
2019-01-11T03:45:14.561Z,18.97
2019-01-11T03:47:41.234Z,18.40
2019-01-11T03:50:10.687Z,20.37
2019-01-11T03:52:37.262Z,18.17
2019-01-11T03:55:06.932Z,22.30
2019-01-11T03:57:33.464Z,21.90
2019-01-11T04:00:00.007Z,23.30
2019-01-11T04:02:28.237Z,22.27
2019-01-11T04:04:54.806Z,25.30
2019-01-11T04:07:21.344Z,29.33
2019-01-11T04:09:47.903Z,27.40
2019-01-11T04:12:14.453Z,29.57
2019-01-11T04:14:41.205Z,27.70
2019-01-11T04:17:07.837Z,29.20
2019-01-11T04:19:34.610Z,31.27
2019-01-11T04:22:03.138Z,34.60
2019-01-11T04:24:31.652Z,33.57
2019-01-11T04:26:58.301Z,43.27
2019-01-11T04:29:25.468Z,42.43
2019-01-11T04:31:52.078Z,40.67
2019-01-11T04:34:18.680Z,49.20
2019-01-11T04:36:45.250Z,45.10
2019-01-11T04:39:11.934Z,42.90
2019-01-11T04:41:38.540Z,45.83
2019-01-11T04:44:05.199Z,49.03
2019-01-11T04:46:31.822Z,56.60
2019-01-11T04:48:58.385Z,66.87
2019-01-11T04:51:24.951Z,53.07
2019-01-11T04:53:51.502Z,53.60
2019-01-11T04:56:18.069Z,49.00
2019-01-11T04:58:44.764Z,55.13
2019-01-11T05:01:11.245Z,62.53
2019-01-11T05:03:37.872Z,64.53
2019-01-11T05:06:04.652Z,75.80
2019-01-11T05:08:31.182Z,86.67
2019-01-11T05:10:57.750Z,94.87
2019-01-11T05:13:26.276Z,60.47
2019-01-11T05:15:52.834Z,73.13
2019-01-11T05:18:19.359Z,83.07
2019-01-11T05:20:46.022Z,76.97
2019-01-11T05:23:12.567Z,64.30
2019-01-11T05:25:39.126Z,97.53
2019-01-11T05:28:07.427Z,92.97
2019-01-11T05:30:34.186Z,87.57
2019-01-11T05:33:00.904Z,109.90
2019-01-11T05:35:27.674Z,95.30
2019-01-11T05:37:54.386Z,107.27
2019-01-11T05:40:21.148Z,114.40
2019-01-11T05:42:47.766Z,93.70
2019-01-11T05:45:14.833Z,108.80
2019-01-11T05:47:41.452Z,100.63
2019-01-11T05:50:11.726Z,100.90
2019-01-11T05:52:38.247Z,127.70
2019-01-11T05:55:07.813Z,131.17
2019-01-11T05:57:34.330Z,117.00
2019-01-11T06:00:01.218Z,159.40
2019-01-11T06:02:27.718Z,99.50
2019-01-11T06:04:55.693Z,123.93
2019-01-11T06:07:23.503Z,138.90
2019-01-11T06:09:50.385Z,103.07
2019-01-11T06:12:16.925Z,121.77
2019-01-11T06:14:43.705Z,109.23
2019-01-11T06:17:10.326Z,104.87
2019-01-11T06:19:36.901Z,108.40
2019-01-11T06:22:03.677Z,119.03
2019-01-11T06:24:30.459Z,70.73
2019-01-11T06:26:57.132Z,110.43
2019-01-11T06:29:23.657Z,91.47
2019-01-11T06:31:50.229Z,94.43
2019-01-11T06:34:16.656Z,113.67
2019-01-11T06:36:43.350Z,150.57
2019-01-11T06:39:09.919Z,126.73
2019-01-11T06:41:38.360Z,127.97
2019-01-11T06:44:04.929Z,116.80
2019-01-11T06:46:31.502Z,122.67
2019-01-11T06:48:58.303Z,114.80
2019-01-11T06:51:24.744Z,152.33
2019-01-11T06:53:51.365Z,105.77
2019-01-11T06:56:18.000Z,102.27
2019-01-11T06:58:44.977Z,118.83
2019-01-11T07:01:11.825Z,108.73
2019-01-11T07:03:38.925Z,129.03
2019-01-11T07:06:05.541Z,113.83
2019-01-11T07:08:32.278Z,129.60
2019-01-11T07:10:58.934Z,123.10
2019-01-11T07:13:25.563Z,95.17
2019-01-11T07:15:52.237Z,164.63
2019-01-11T07:18:18.838Z,144.33
2019-01-11T07:20:45.453Z,129.80
2019-01-11T07:23:12.020Z,123.77
2019-01-11T07:25:38.638Z,158.23
2019-01-11T07:28:05.281Z,155.77
2019-01-11T07:30:33.805Z,129.83
2019-01-11T07:33:02.792Z,137.40
2019-01-11T07:35:31.308Z,130.33
2019-01-11T07:37:57.982Z,152.17
2019-01-11T07:40:24.496Z,144.67
2019-01-11T07:42:51.349Z,120.47
2019-01-11T07:45:18.079Z,132.63
2019-01-11T07:47:44.742Z,162.70
2019-01-11T07:50:11.570Z,118.33
2019-01-11T07:52:40.129Z,131.57
2019-01-11T07:55:08.073Z,143.93
2019-01-11T07:57:35.525Z,138.23
2019-01-11T08:00:08.718Z,132.23
2019-01-11T08:02:35.281Z,142.07
2019-01-11T08:05:02.204Z,146.00
2019-01-11T08:07:28.723Z,132.40
2019-01-11T08:09:55.384Z,156.50
2019-01-11T08:12:22.013Z,108.37
2019-01-11T08:14:48.587Z,128.50
2019-01-11T08:17:15.214Z,136.60
2019-01-11T08:19:41.773Z,131.90
2019-01-11T08:22:10.301Z,127.07
2019-01-11T08:24:38.756Z,121.57
2019-01-11T08:27:05.484Z,120.37
2019-01-11T08:29:32.795Z,113.03
2019-01-11T08:31:59.428Z,108.60
2019-01-11T08:34:26.086Z,118.80
2019-01-11T08:36:52.712Z,130.27
2019-01-11T08:39:19.288Z,100.93
2019-01-11T08:41:45.925Z,117.10
2019-01-11T08:44:12.591Z,126.90
2019-01-11T08:46:39.117Z,92.93
2019-01-11T08:49:06.485Z,93.87
2019-01-11T08:51:33.110Z,126.10
2019-01-11T08:53:59.864Z,112.63
2019-01-11T08:56:26.391Z,91.90
2019-01-11T08:58:52.942Z,96.17
2019-01-11T09:01:19.464Z,99.97
2019-01-11T09:03:46.128Z,74.43
2019-01-11T09:06:12.751Z,88.70
2019-01-11T09:08:39.415Z,76.57
2019-01-11T09:11:06.033Z,86.40
2019-01-11T09:13:32.695Z,73.60
2019-01-11T09:15:59.317Z,83.13
2019-01-11T09:18:27.884Z,85.60
2019-01-11T09:20:54.409Z,93.10
2019-01-11T09:23:20.967Z,93.93
2019-01-11T09:25:47.490Z,91.20
2019-01-11T09:28:14.025Z,89.77
2019-01-11T09:30:40.580Z,100.37
2019-01-11T09:33:07.109Z,108.20
2019-01-11T09:35:33.658Z,127.80
2019-01-11T09:38:00.288Z,124.73
2019-01-11T09:40:26.845Z,124.17
2019-01-11T09:42:53.477Z,117.37
2019-01-11T09:45:20.233Z,109.27
2019-01-11T09:47:46.854Z,108.70
2019-01-11T09:50:13.435Z,93.90
2019-01-11T09:52:40.055Z,107.50
2019-01-11T09:55:07.614Z,122.43
2019-01-11T09:57:34.353Z,110.10
2019-01-11T10:00:00.999Z,103.53
2019-01-11T10:02:29.483Z,97.23
2019-01-11T10:04:56.090Z,91.93
2019-01-11T10:07:26.426Z,95.90
2019-01-11T10:09:53.081Z,93.20
2019-01-11T10:12:19.813Z,90.30
2019-01-11T10:14:47.575Z,97.90
2019-01-11T10:17:14.305Z,102.50
2019-01-11T10:19:41.057Z,93.67
2019-01-11T10:22:07.680Z,98.53
2019-01-11T10:24:34.342Z,91.13
2019-01-11T10:27:00.972Z,92.60
2019-01-11T10:29:28.337Z,80.93
2019-01-11T10:31:55.056Z,98.13
2019-01-11T10:34:21.818Z,92.77
2019-01-11T10:36:50.056Z,78.77
2019-01-11T10:39:16.714Z,80.60
2019-01-11T10:41:43.435Z,85.30
2019-01-11T10:44:10.073Z,70.60
2019-01-11T10:46:37.226Z,80.33
2019-01-11T10:49:03.956Z,63.43
2019-01-11T10:51:30.530Z,58.40
2019-01-11T10:53:57.047Z,55.43
2019-01-11T10:56:23.709Z,57.23
2019-01-11T10:58:50.324Z,50.17
2019-01-11T11:01:16.891Z,47.90
2019-01-11T11:03:43.519Z,39.43
2019-01-11T11:06:10.083Z,38.00
2019-01-11T11:08:36.735Z,30.83
2019-01-11T11:11:03.485Z,26.63
2019-01-11T11:13:30.110Z,24.90
2019-01-11T11:15:58.573Z,28.60
2019-01-11T11:18:25.089Z,20.30
2019-01-11T11:20:51.554Z,16.70
2019-01-11T11:23:18.185Z,19.63
2019-01-11T11:25:44.847Z,13.13
2019-01-11T11:28:11.370Z,19.87
2019-01-11T11:30:38.324Z,17.10
2019-01-11T11:33:04.953Z,16.10
2019-01-11T11:35:31.797Z,15.37
2019-01-11T11:37:58.631Z,11.73
2019-01-11T11:40:25.612Z,10.17
2019-01-11T11:42:52.243Z,9.27
2019-01-11T11:45:18.808Z,6.23
2019-01-11T11:47:45.321Z,8.40
2019-01-11T11:50:12.247Z,5.90
2019-01-11T11:52:38.849Z,5.90
2019-01-11T11:55:06.969Z,7.50
2019-01-11T11:57:33.734Z,4.47
2019-01-11T12:00:00.519Z,6.33
2019-01-11T12:02:27.198Z,3.63
2019-01-11T12:04:53.935Z,2.00
2019-01-11T12:07:20.712Z,3.03
2019-01-11T12:09:47.244Z,10.13
2019-01-11T12:12:13.913Z,5.73
2019-01-11T12:14:40.448Z,2.80
2019-01-11T12:17:07.009Z,1.50
2019-01-11T12:19:33.528Z,3.40
2019-01-11T12:22:01.812Z,1.57
2019-01-11T12:24:28.417Z,2.13
2019-01-11T12:26:56.069Z,2.23
2019-01-11T12:29:22.692Z,2.27
2019-01-11T12:31:50.344Z,1.00
2019-01-11T12:34:16.984Z,3.90
2019-01-11T12:36:43.746Z,4.03
2019-01-11T12:39:10.381Z,3.27
2019-01-11T12:41:36.945Z,1.67
2019-01-11T12:44:03.577Z,3.83
2019-01-11T12:46:31.127Z,2.10
2019-01-11T12:48:58.775Z,3.10
2019-01-11T12:51:25.536Z,2.93
2019-01-11T12:53:52.068Z,2.57
2019-01-11T12:56:18.625Z,3.73
2019-01-11T12:58:45.149Z,2.00
2019-01-11T13:01:11.759Z,2.30
2019-01-11T13:03:38.297Z,3.03
2019-01-11T13:06:04.915Z,1.90
2019-01-11T13:08:31.687Z,3.83
2019-01-11T13:10:58.214Z,2.40
2019-01-11T13:13:24.785Z,2.80
2019-01-11T13:15:51.412Z,1.83
2019-01-11T13:18:18.080Z,2.43
2019-01-11T13:20:44.711Z,4.33
2019-01-11T13:23:11.484Z,7.30
2019-01-11T13:25:38.068Z,3.17
2019-01-11T13:28:04.579Z,2.67
2019-01-11T13:30:31.110Z,3.40
2019-01-11T13:32:57.783Z,5.60
2019-01-11T13:35:24.512Z,3.40
2019-01-11T13:37:51.136Z,2.83
2019-01-11T13:40:19.954Z,2.93
2019-01-11T13:42:46.665Z,3.47
2019-01-11T13:45:13.680Z,2.97
2019-01-11T13:47:40.343Z,2.50
2019-01-11T13:50:13.533Z,4.07
2019-01-11T13:52:40.105Z,3.90
2019-01-11T13:55:06.632Z,3.70
2019-01-11T13:57:33.217Z,1.80
2019-01-11T13:59:59.738Z,5.53
2019-01-11T14:02:26.442Z,4.20
2019-01-11T14:04:53.021Z,4.80
2019-01-11T14:07:19.577Z,3.33
2019-01-11T14:09:46.205Z,6.27
2019-01-11T14:12:12.893Z,8.13
2019-01-11T14:14:39.632Z,3.10
2019-01-11T14:17:06.313Z,3.20
2019-01-11T14:19:32.952Z,5.27
2019-01-11T14:21:59.619Z,6.93
2019-01-11T14:24:26.146Z,6.17
2019-01-11T14:26:52.838Z,7.27
2019-01-11T14:29:19.358Z,9.03
2019-01-11T14:31:45.897Z,7.47
2019-01-11T14:34:12.569Z,6.57
2019-01-11T14:36:39.185Z,6.07
2019-01-11T14:39:07.057Z,6.83
2019-01-11T14:41:33.985Z,7.90
2019-01-11T14:44:03.467Z,5.33
2019-01-11T14:46:30.094Z,6.17
2019-01-11T14:48:58.332Z,7.50
2019-01-11T14:51:25.104Z,8.73
2019-01-11T14:53:51.870Z,5.90
2019-01-11T14:56:18.608Z,11.53
2019-01-11T14:58:45.141Z,6.30
2019-01-11T15:01:11.801Z,4.37
2019-01-11T15:03:38.484Z,9.97
2019-01-11T15:06:05.268Z,9.10
2019-01-11T15:08:32.494Z,8.80
2019-01-11T15:10:59.128Z,7.40
2019-01-11T15:13:25.815Z,12.87
2019-01-11T15:15:52.433Z,13.17
2019-01-11T15:18:19.047Z,12.87
2019-01-11T15:20:45.721Z,11.10
2019-01-11T15:23:13.654Z,10.50
2019-01-11T15:25:40.374Z,12.77
2019-01-11T15:28:07.046Z,13.50
2019-01-11T15:30:33.601Z,11.07
2019-01-11T15:33:00.180Z,9.97
2019-01-11T15:35:26.706Z,8.40
2019-01-11T15:37:53.347Z,11.97
2019-01-11T15:40:25.107Z,10.27
2019-01-11T15:42:51.724Z,16.20
2019-01-11T15:45:18.398Z,13.83
2019-01-11T15:47:45.022Z,10.47
2019-01-11T15:50:32.148Z,13.73
2019-01-11T15:52:58.773Z,14.90
2019-01-11T15:55:25.413Z,18.50
2019-01-11T15:57:52.072Z,13.87
2019-01-11T16:00:19.463Z,12.63
2019-01-11T16:02:46.101Z,11.87
2019-01-11T16:05:12.624Z,17.20
2019-01-11T16:07:39.189Z,12.37
2019-01-11T16:10:12.217Z,19.17
2019-01-11T16:12:39.041Z,16.23
2019-01-11T16:15:09.530Z,13.83
2019-01-11T16:17:36.129Z,18.40
2019-01-11T16:20:09.605Z,14.03
2019-01-11T16:22:39.611Z,18.13
2019-01-11T16:25:08.365Z,14.87
2019-01-11T16:27:35.137Z,18.13
2019-01-11T16:30:05.717Z,10.97
2019-01-11T16:32:32.388Z,15.53
2019-01-11T16:34:59.369Z,14.33
2019-01-11T16:37:26.099Z,15.80
2019-01-11T16:39:52.793Z,25.50
2019-01-11T16:42:19.791Z,18.63
2019-01-11T16:44:47.787Z,29.70
2019-01-11T16:47:14.362Z,13.30
2019-01-11T16:49:40.987Z,21.63
2019-01-11T16:52:07.471Z,17.20
2019-01-11T16:54:34.263Z,21.73
2019-01-11T16:57:01.075Z,22.90
2019-01-11T16:59:27.724Z,19.60
2019-01-11T17:01:54.259Z,21.17
2019-01-11T17:04:20.904Z,22.27
2019-01-11T17:06:47.476Z,26.47
2019-01-11T17:09:14.060Z,22.10
2019-01-11T17:11:40.656Z,24.80
2019-01-11T17:14:07.230Z,23.33
2019-01-11T17:16:33.969Z,29.57
2019-01-11T17:19:00.495Z,19.60
2019-01-11T17:21:27.161Z,23.83
2019-01-11T17:23:53.892Z,26.67
2019-01-11T17:26:20.567Z,21.00
2019-01-11T17:28:48.787Z,21.77
2019-01-11T17:31:15.466Z,27.23
2019-01-11T17:33:41.985Z,16.90
2019-01-11T17:36:08.642Z,20.60
2019-01-11T17:38:35.210Z,23.00
2019-01-11T17:41:01.766Z,22.73
2019-01-11T17:43:28.439Z,21.40
2019-01-11T17:45:54.987Z,22.90
2019-01-11T17:48:21.550Z,21.13
2019-01-11T17:50:48.125Z,28.63
2019-01-11T17:53:14.757Z,24.83
2019-01-11T17:55:41.489Z,23.57
2019-01-11T17:58:08.161Z,26.23
2019-01-11T18:00:35.036Z,24.00
2019-01-11T18:03:01.719Z,30.27
2019-01-11T18:05:29.941Z,30.80
2019-01-11T18:07:56.676Z,29.33
2019-01-11T18:10:23.249Z,30.73
2019-01-11T18:12:49.789Z,21.87
2019-01-11T18:15:19.441Z,30.00
2019-01-11T18:17:46.092Z,25.07
2019-01-11T18:20:18.770Z,31.80
2019-01-11T18:22:45.291Z,31.63
2019-01-11T18:25:11.925Z,27.20
2019-01-11T18:27:38.501Z,30.53
2019-01-11T18:30:13.836Z,29.70
2019-01-11T18:32:41.518Z,25.93
2019-01-11T18:35:08.396Z,29.60
2019-01-11T18:37:34.921Z,32.85
2019-01-11T18:40:01.909Z,26.10
2019-01-11T18:42:28.548Z,31.73
2019-01-11T18:44:55.186Z,33.53
2019-01-11T18:47:21.813Z,32.63
2019-01-11T18:49:49.254Z,33.10
2019-01-11T18:52:16.124Z,28.27
2019-01-11T18:54:42.701Z,31.87
2019-01-11T18:57:09.398Z,28.67
2019-01-11T18:59:35.953Z,29.83
2019-01-11T19:02:02.698Z,33.47
2019-01-11T19:04:29.509Z,34.83
2019-01-11T19:06:56.072Z,29.20
2019-01-11T19:09:22.706Z,31.80
2019-01-11T19:11:49.272Z,31.83
2019-01-11T19:14:15.854Z,28.07
2019-01-11T19:16:42.401Z,37.67
2019-01-11T19:19:09.073Z,26.37
2019-01-11T19:21:35.656Z,26.87
2019-01-11T19:24:02.474Z,35.47
2019-01-11T19:26:29.093Z,32.47
2019-01-11T19:28:56.658Z,31.60
2019-01-11T19:31:23.405Z,28.40
2019-01-11T19:33:50.200Z,47.20
2019-01-11T19:36:16.882Z,37.80
2019-01-11T19:38:43.676Z,35.73
2019-01-11T19:41:10.318Z,40.75
2019-01-11T19:43:36.890Z,33.90
2019-01-11T19:46:03.516Z,39.20
2019-01-11T19:48:30.188Z,38.00
2019-01-11T19:50:56.821Z,35.13
2019-01-11T19:53:27.445Z,36.33
2019-01-11T19:55:58.562Z,30.50
2019-01-11T19:58:20.194Z,37.33
2019-01-11T20:00:46.930Z,46.17
2019-01-11T20:03:13.863Z,37.37
2019-01-11T20:05:41.576Z,32.00
2019-01-11T20:08:09.549Z,32.63
2019-01-11T20:10:37.977Z,32.93
2019-01-11T20:13:05.438Z,40.97
2019-01-11T20:15:33.027Z,38.93
2019-01-11T20:18:00.432Z,43.20
2019-01-11T20:20:26.989Z,34.50
2019-01-11T20:22:53.942Z,37.30
2019-01-11T20:25:22.420Z,33.00
2019-01-11T20:27:49.541Z,31.97
2019-01-11T20:30:21.605Z,34.03
2019-01-11T20:32:48.600Z,38.37
2019-01-11T20:35:15.440Z,31.70
2019-01-11T20:37:42.261Z,24.00
2019-01-11T20:40:11.986Z,35.07
2019-01-11T20:42:38.505Z,32.00
2019-01-11T20:45:07.610Z,38.80
2019-01-11T20:47:34.242Z,36.67
2019-01-11T20:50:00.874Z,45.07
2019-01-11T20:52:29.425Z,38.20
2019-01-11T20:54:56.112Z,38.67
2019-01-11T20:57:22.784Z,45.03
2019-01-11T20:59:49.392Z,37.77
2019-01-11T21:02:16.124Z,32.60
2019-01-11T21:04:43.208Z,39.23
2019-01-11T21:07:09.934Z,41.03
2019-01-11T21:09:36.485Z,31.53
2019-01-11T21:12:03.168Z,31.00
2019-01-11T21:14:29.741Z,41.87
2019-01-11T21:16:56.381Z,34.17
2019-01-11T21:19:23.262Z,40.07
2019-01-11T21:21:49.842Z,29.30
2019-01-11T21:24:16.461Z,43.33
2019-01-11T21:26:43.141Z,35.37
2019-01-11T21:29:09.858Z,30.70
2019-01-11T21:31:36.606Z,32.97
2019-01-11T21:34:03.393Z,35.83
2019-01-11T21:36:30.306Z,33.67
2019-01-11T21:38:57.002Z,35.47
2019-01-11T21:41:23.628Z,46.53
2019-01-11T21:43:50.142Z,33.70
2019-01-11T21:46:16.585Z,47.10
2019-01-11T21:48:43.564Z,42.37
2019-01-11T21:51:10.094Z,35.60
2019-01-11T21:53:36.670Z,35.27
2019-01-11T21:56:04.198Z,38.93
2019-01-11T21:58:30.974Z,33.07
2019-01-11T22:00:57.506Z,38.40
2019-01-11T22:03:24.188Z,32.13
2019-01-11T22:05:50.965Z,39.10
2019-01-11T22:08:17.480Z,31.50
2019-01-11T22:10:44.160Z,35.97
2019-01-11T22:13:10.932Z,34.67
2019-01-11T22:15:37.478Z,40.37
2019-01-11T22:18:04.773Z,38.97
2019-01-11T22:20:31.533Z,38.27
2019-01-11T22:22:58.303Z,33.00
2019-01-11T22:25:25.017Z,36.43
2019-01-11T22:27:51.547Z,35.70
2019-01-11T22:30:30.291Z,34.93
2019-01-11T22:32:53.148Z,36.37
2019-01-11T22:35:19.672Z,37.20
2019-01-11T22:37:46.628Z,30.27
2019-01-11T22:40:21.064Z,27.10
2019-01-11T22:42:49.060Z,46.27
2019-01-11T22:45:15.549Z,41.60
2019-01-11T22:47:42.529Z,35.70
2019-01-11T22:50:11.645Z,36.00
2019-01-11T22:52:38.689Z,40.40
2019-01-11T22:55:08.057Z,44.67
2019-01-11T22:57:34.682Z,36.83
2019-01-11T23:00:04.134Z,37.50
2019-01-11T23:02:32.801Z,38.30
2019-01-11T23:04:59.701Z,33.07
2019-01-11T23:07:28.216Z,35.40
2019-01-11T23:10:01.423Z,32.17
2019-01-11T23:12:34.826Z,40.17
2019-01-11T23:15:01.588Z,39.30
2019-01-11T23:17:32.076Z,33.10
2019-01-11T23:19:58.656Z,34.03
2019-01-11T23:22:25.274Z,40.10
2019-01-11T23:24:52.042Z,35.00
2019-01-11T23:27:18.637Z,36.33
2019-01-11T23:29:45.207Z,32.13
2019-01-11T23:32:11.832Z,43.90
2019-01-11T23:34:42.013Z,36.30
2019-01-11T23:37:09.936Z,38.40
2019-01-11T23:39:36.506Z,27.73
2019-01-11T23:42:03.145Z,42.30
2019-01-11T23:44:29.710Z,34.83
2019-01-11T23:46:56.328Z,33.63
2019-01-11T23:49:23.116Z,34.60
2019-01-11T23:51:49.744Z,33.33
2019-01-11T23:54:16.402Z,35.17
2019-01-11T23:56:42.930Z,31.33
2019-01-11T23:59:09.588Z,30.60
